sensor_id;sensor_type;location;lat;lon;timestamp;P1;durP1;ratioP1;P2;durP2;ratioP2
18576;SDS011;9418;52.694;13.294;2022-12-07T00:14:48;7.60;;;7.00;;
18576;SDS011;9418;52.694;13.294;2022-12-07T00:17:14;8.27;;;7.60;;
18576;SDS011;9418;52.694;13.294;2022-12-07T00:19:41;7.50;;;6.90;;
18576;SDS011;9418;52.694;13.294;2022-12-07T00:22:07;9.00;;;7.77;;
18576;SDS011;9418;52.694;13.294;2022-12-07T00:24:34;7.80;;;7.10;;
18576;SDS011;9418;52.694;13.294;2022-12-07T00:27:00;8.73;;;7.70;;
18576;SDS011;9418;52.694;13.294;2022-12-07T00:29:27;9.03;;;8.20;;
18576;SDS011;9418;52.694;13.294;2022-12-07T00:31:55;8.20;;;7.50;;
18576;SDS011;9418;52.694;13.294;2022-12-07T00:34:21;9.63;;;8.50;;
18576;SDS011;9418;52.694;13.294;2022-12-07T00:36:48;7.40;;;6.80;;
18576;SDS011;9418;52.694;13.294;2022-12-07T00:39:16;8.10;;;7.30;;
18576;SDS011;9418;52.694;13.294;2022-12-07T00:41:42;8.50;;;6.73;;
18576;SDS011;9418;52.694;13.294;2022-12-07T00:44:09;9.03;;;7.60;;
18576;SDS011;9418;52.694;13.294;2022-12-07T00:46:35;7.20;;;6.60;;
18576;SDS011;9418;52.694;13.294;2022-12-07T00:49:03;8.40;;;7.70;;
18576;SDS011;9418;52.694;13.294;2022-12-07T00:51:30;7.27;;;6.60;;
18576;SDS011;9418;52.694;13.294;2022-12-07T00:53:56;7.77;;;7.07;;
18576;SDS011;9418;52.694;13.294;2022-12-07T00:56:24;7.20;;;6.50;;
18576;SDS011;9418;52.694;13.294;2022-12-07T00:58:52;7.57;;;6.97;;
18576;SDS011;9418;52.694;13.294;2022-12-07T01:01:20;8.50;;;7.70;;
18576;SDS011;9418;52.694;13.294;2022-12-07T01:03:47;7.67;;;7.03;;
18576;SDS011;9418;52.694;13.294;2022-12-07T01:06:16;7.43;;;6.87;;
18576;SDS011;9418;52.694;13.294;2022-12-07T01:08:44;7.83;;;7.13;;
18576;SDS011;9418;52.694;13.294;2022-12-07T01:11:11;7.30;;;6.70;;
18576;SDS011;9418;52.694;13.294;2022-12-07T01:13:40;7.83;;;7.13;;
18576;SDS011;9418;52.694;13.294;2022-12-07T01:16:07;7.00;;;6.40;;
18576;SDS011;9418;52.694;13.294;2022-12-07T01:18:35;8.13;;;7.40;;
18576;SDS011;9418;52.694;13.294;2022-12-07T01:21:03;7.83;;;7.07;;
18576;SDS011;9418;52.694;13.294;2022-12-07T01:23:32;8.93;;;7.67;;
18576;SDS011;9418;52.694;13.294;2022-12-07T01:26:01;7.80;;;7.20;;
18576;SDS011;9418;52.694;13.294;2022-12-07T01:28:29;7.23;;;6.63;;
18576;SDS011;9418;52.694;13.294;2022-12-07T01:30:59;8.00;;;7.30;;
18576;SDS011;9418;52.694;13.294;2022-12-07T01:33:27;7.03;;;6.43;;
18576;SDS011;9418;52.694;13.294;2022-12-07T01:35:54;7.30;;;6.70;;
18576;SDS011;9418;52.694;13.294;2022-12-07T01:38:26;8.03;;;7.23;;
18576;SDS011;9418;52.694;13.294;2022-12-07T01:40:57;7.40;;;6.80;;
18576;SDS011;9418;52.694;13.294;2022-12-07T01:43:25;7.53;;;6.90;;
18576;SDS011;9418;52.694;13.294;2022-12-07T01:45:55;7.77;;;7.10;;
18576;SDS011;9418;52.694;13.294;2022-12-07T01:48:24;7.53;;;6.93;;
18576;SDS011;9418;52.694;13.294;2022-12-07T01:50:53;7.90;;;7.20;;
18576;SDS011;9418;52.694;13.294;2022-12-07T01:53:21;7.70;;;7.03;;
18576;SDS011;9418;52.694;13.294;2022-12-07T01:55:52;7.30;;;6.70;;
18576;SDS011;9418;52.694;13.294;2022-12-07T01:58:21;7.57;;;6.87;;
18576;SDS011;9418;52.694;13.294;2022-12-07T02:00:49;6.67;;;6.07;;
18576;SDS011;9418;52.694;13.294;2022-12-07T02:03:17;6.13;;;5.63;;
18576;SDS011;9418;52.694;13.294;2022-12-07T02:05:48;8.90;;;6.20;;
18576;SDS011;9418;52.694;13.294;2022-12-07T02:08:15;6.37;;;5.83;;
18576;SDS011;9418;52.694;13.294;2022-12-07T02:10:43;6.80;;;6.27;;
18576;SDS011;9418;52.694;13.294;2022-12-07T02:13:10;7.53;;;6.83;;
18576;SDS011;9418;52.694;13.294;2022-12-07T02:15:47;7.03;;;6.30;;
18576;SDS011;9418;52.694;13.294;2022-12-07T02:18:30;6.83;;;5.70;;
18576;SDS011;9418;52.694;13.294;2022-12-07T02:21:06;6.37;;;5.87;;
18576;SDS011;9418;52.694;13.294;2022-12-07T02:23:40;6.40;;;5.87;;
18576;SDS011;9418;52.694;13.294;2022-12-07T02:26:22;6.70;;;6.10;;
18576;SDS011;9418;52.694;13.294;2022-12-07T02:29:18;6.30;;;5.80;;
18576;SDS011;9418;52.694;13.294;2022-12-07T02:31:50;11.57;;;5.50;;
18576;SDS011;9418;52.694;13.294;2022-12-07T02:34:23;6.90;;;6.30;;
18576;SDS011;9418;52.694;13.294;2022-12-07T02:36:55;6.50;;;6.00;;
18576;SDS011;9418;52.694;13.294;2022-12-07T02:39:33;6.00;;;5.50;;
18576;SDS011;9418;52.694;13.294;2022-12-07T02:42:07;6.37;;;5.73;;
18576;SDS011;9418;52.694;13.294;2022-12-07T02:44:41;6.20;;;5.70;;
18576;SDS011;9418;52.694;13.294;2022-12-07T02:47:10;5.67;;;5.20;;
18576;SDS011;9418;52.694;13.294;2022-12-07T02:49:40;7.47;;;5.90;;
18576;SDS011;9418;52.694;13.294;2022-12-07T02:52:08;5.40;;;5.00;;
18576;SDS011;9418;52.694;13.294;2022-12-07T02:54:34;5.40;;;5.00;;
18576;SDS011;9418;52.694;13.294;2022-12-07T02:57:03;7.20;;;6.50;;
18576;SDS011;9418;52.694;13.294;2022-12-07T02:59:41;8.83;;;6.10;;
18576;SDS011;9418;52.694;13.294;2022-12-07T03:02:20;5.40;;;5.00;;
18576;SDS011;9418;52.694;13.294;2022-12-07T03:04:52;6.80;;;6.20;;
18576;SDS011;9418;52.694;13.294;2022-12-07T03:07:30;7.47;;;6.77;;
18576;SDS011;9418;52.694;13.294;2022-12-07T03:10:07;6.77;;;6.10;;
18576;SDS011;9418;52.694;13.294;2022-12-07T03:12:42;6.23;;;5.63;;
18576;SDS011;9418;52.694;13.294;2022-12-07T03:15:16;6.80;;;6.20;;
18576;SDS011;9418;52.694;13.294;2022-12-07T03:17:47;6.47;;;5.73;;
18576;SDS011;9418;52.694;13.294;2022-12-07T03:20:17;11.43;;;5.27;;
18576;SDS011;9418;52.694;13.294;2022-12-07T03:22:47;8.50;;;7.33;;
18576;SDS011;9418;52.694;13.294;2022-12-07T03:25:15;10.50;;;6.40;;
18576;SDS011;9418;52.694;13.294;2022-12-07T03:27:44;6.03;;;5.53;;
18576;SDS011;9418;52.694;13.294;2022-12-07T03:30:18;5.70;;;5.30;;
18576;SDS011;9418;52.694;13.294;2022-12-07T03:32:48;7.30;;;5.97;;
18576;SDS011;9418;52.694;13.294;2022-12-07T03:35:18;7.87;;;7.07;;
18576;SDS011;9418;52.694;13.294;2022-12-07T03:37:51;6.73;;;6.13;;
18576;SDS011;9418;52.694;13.294;2022-12-07T03:40:22;6.80;;;6.20;;
18576;SDS011;9418;52.694;13.294;2022-12-07T03:42:52;7.33;;;5.80;;
18576;SDS011;9418;52.694;13.294;2022-12-07T03:45:23;7.33;;;6.47;;
18576;SDS011;9418;52.694;13.294;2022-12-07T03:47:59;8.40;;;7.60;;
18576;SDS011;9418;52.694;13.294;2022-12-07T03:50:34;9.30;;;8.40;;
18576;SDS011;9418;52.694;13.294;2022-12-07T03:53:08;9.77;;;8.37;;
18576;SDS011;9418;52.694;13.294;2022-12-07T03:55:41;10.03;;;8.90;;
18576;SDS011;9418;52.694;13.294;2022-12-07T03:58:11;12.10;;;8.90;;
18576;SDS011;9418;52.694;13.294;2022-12-07T04:00:42;11.03;;;9.60;;
18576;SDS011;9418;52.694;13.294;2022-12-07T04:03:09;10.47;;;9.10;;
18576;SDS011;9418;52.694;13.294;2022-12-07T04:05:36;12.50;;;9.10;;
18576;SDS011;9418;52.694;13.294;2022-12-07T04:08:03;10.70;;;9.50;;
18576;SDS011;9418;52.694;13.294;2022-12-07T04:10:30;12.43;;;9.90;;
18576;SDS011;9418;52.694;13.294;2022-12-07T04:12:56;10.43;;;9.37;;
18576;SDS011;9418;52.694;13.294;2022-12-07T04:15:23;15.00;;;10.30;;
18576;SDS011;9418;52.694;13.294;2022-12-07T04:17:51;13.00;;;10.23;;
18576;SDS011;9418;52.694;13.294;2022-12-07T04:20:19;11.90;;;10.60;;
18576;SDS011;9418;52.694;13.294;2022-12-07T04:22:45;11.80;;;10.57;;
18576;SDS011;9418;52.694;13.294;2022-12-07T04:25:12;12.67;;;11.10;;
18576;SDS011;9418;52.694;13.294;2022-12-07T04:27:39;12.73;;;11.43;;
18576;SDS011;9418;52.694;13.294;2022-12-07T04:30:06;12.87;;;11.47;;
18576;SDS011;9418;52.694;13.294;2022-12-07T04:32:33;14.00;;;11.30;;
18576;SDS011;9418;52.694;13.294;2022-12-07T04:35:01;14.53;;;12.30;;
18576;SDS011;9418;52.694;13.294;2022-12-07T04:37:28;15.13;;;11.90;;
18576;SDS011;9418;52.694;13.294;2022-12-07T04:39:54;15.93;;;12.50;;
18576;SDS011;9418;52.694;13.294;2022-12-07T04:42:21;14.20;;;11.63;;
18576;SDS011;9418;52.694;13.294;2022-12-07T04:44:47;23.63;;;12.50;;
18576;SDS011;9418;52.694;13.294;2022-12-07T04:47:14;14.90;;;12.80;;
18576;SDS011;9418;52.694;13.294;2022-12-07T04:49:40;19.80;;;13.30;;
18576;SDS011;9418;52.694;13.294;2022-12-07T04:52:08;15.90;;;13.60;;
18576;SDS011;9418;52.694;13.294;2022-12-07T04:54:35;15.60;;;13.80;;
18576;SDS011;9418;52.694;13.294;2022-12-07T04:57:02;17.00;;;13.70;;
18576;SDS011;9418;52.694;13.294;2022-12-07T04:59:28;15.83;;;12.87;;
18576;SDS011;9418;52.694;13.294;2022-12-07T05:01:55;15.37;;;13.47;;
18576;SDS011;9418;52.694;13.294;2022-12-07T05:04:21;17.30;;;14.33;;
18576;SDS011;9418;52.694;13.294;2022-12-07T05:06:48;16.83;;;15.03;;
18576;SDS011;9418;52.694;13.294;2022-12-07T05:09:16;16.10;;;14.47;;
18576;SDS011;9418;52.694;13.294;2022-12-07T05:11:42;18.90;;;14.03;;
18576;SDS011;9418;52.694;13.294;2022-12-07T05:14:11;17.20;;;13.83;;
18576;SDS011;9418;52.694;13.294;2022-12-07T05:16:39;16.50;;;13.80;;
18576;SDS011;9418;52.694;13.294;2022-12-07T05:19:06;19.30;;;14.50;;
18576;SDS011;9418;52.694;13.294;2022-12-07T05:21:33;20.60;;;15.93;;
18576;SDS011;9418;52.694;13.294;2022-12-07T05:24:00;15.93;;;14.27;;
18576;SDS011;9418;52.694;13.294;2022-12-07T05:26:28;17.20;;;14.40;;
18576;SDS011;9418;52.694;13.294;2022-12-07T05:28:55;18.87;;;14.93;;
18576;SDS011;9418;52.694;13.294;2022-12-07T05:31:23;21.30;;;15.70;;
18576;SDS011;9418;52.694;13.294;2022-12-07T05:33:50;17.97;;;15.30;;
18576;SDS011;9418;52.694;13.294;2022-12-07T05:36:17;14.97;;;13.47;;
18576;SDS011;9418;52.694;13.294;2022-12-07T05:38:44;16.60;;;14.87;;
18576;SDS011;9418;52.694;13.294;2022-12-07T05:41:11;18.53;;;15.30;;
18576;SDS011;9418;52.694;13.294;2022-12-07T05:43:55;18.40;;;15.80;;
18576;SDS011;9418;52.694;13.294;2022-12-07T05:46:22;17.37;;;13.80;;
18576;SDS011;9418;52.694;13.294;2022-12-07T05:48:48;15.90;;;14.20;;
18576;SDS011;9418;52.694;13.294;2022-12-07T05:51:15;17.37;;;14.73;;
18576;SDS011;9418;52.694;13.294;2022-12-07T05:53:42;15.17;;;13.40;;
18576;SDS011;9418;52.694;13.294;2022-12-07T05:56:08;19.20;;;14.40;;
18576;SDS011;9418;52.694;13.294;2022-12-07T05:58:35;16.07;;;14.00;;
18576;SDS011;9418;52.694;13.294;2022-12-07T06:01:21;17.03;;;14.97;;
18576;SDS011;9418;52.694;13.294;2022-12-07T06:03:47;15.20;;;13.60;;
18576;SDS011;9418;52.694;13.294;2022-12-07T06:06:14;20.77;;;15.43;;
18576;SDS011;9418;52.694;13.294;2022-12-07T06:08:40;18.90;;;14.43;;
18576;SDS011;9418;52.694;13.294;2022-12-07T06:11:07;18.50;;;14.30;;
18576;SDS011;9418;52.694;13.294;2022-12-07T06:13:51;15.60;;;13.63;;
18576;SDS011;9418;52.694;13.294;2022-12-07T06:16:18;19.30;;;14.17;;
18576;SDS011;9418;52.694;13.294;2022-12-07T06:18:46;17.93;;;14.00;;
18576;SDS011;9418;52.694;13.294;2022-12-07T06:21:12;15.87;;;13.30;;
18576;SDS011;9418;52.694;13.294;2022-12-07T06:23:39;22.40;;;12.83;;
18576;SDS011;9418;52.694;13.294;2022-12-07T06:26:06;14.43;;;12.60;;
18576;SDS011;9418;52.694;13.294;2022-12-07T06:28:33;13.50;;;12.20;;
18576;SDS011;9418;52.694;13.294;2022-12-07T06:30:59;13.53;;;12.17;;
18576;SDS011;9418;52.694;13.294;2022-12-07T06:33:27;12.70;;;11.40;;
18576;SDS011;9418;52.694;13.294;2022-12-07T06:35:55;14.40;;;11.23;;
18576;SDS011;9418;52.694;13.294;2022-12-07T06:38:22;15.63;;;13.07;;
18576;SDS011;9418;52.694;13.294;2022-12-07T06:40:49;13.73;;;10.97;;
18576;SDS011;9418;52.694;13.294;2022-12-07T06:43:16;13.07;;;11.47;;
18576;SDS011;9418;52.694;13.294;2022-12-07T06:45:42;11.37;;;9.90;;
18576;SDS011;9418;52.694;13.294;2022-12-07T06:48:09;16.00;;;11.70;;
18576;SDS011;9418;52.694;13.294;2022-12-07T06:50:36;12.20;;;11.00;;
18576;SDS011;9418;52.694;13.294;2022-12-07T06:53:03;12.73;;;10.03;;
18576;SDS011;9418;52.694;13.294;2022-12-07T06:55:30;15.63;;;11.77;;
18576;SDS011;9418;52.694;13.294;2022-12-07T06:57:57;12.97;;;11.30;;
18576;SDS011;9418;52.694;13.294;2022-12-07T07:00:23;13.50;;;11.60;;
18576;SDS011;9418;52.694;13.294;2022-12-07T07:02:50;14.10;;;11.23;;
18576;SDS011;9418;52.694;13.294;2022-12-07T07:05:16;14.30;;;11.57;;
18576;SDS011;9418;52.694;13.294;2022-12-07T07:07:43;12.37;;;10.40;;
18576;SDS011;9418;52.694;13.294;2022-12-07T07:10:11;11.70;;;10.27;;
18576;SDS011;9418;52.694;13.294;2022-12-07T07:12:38;10.70;;;9.60;;
18576;SDS011;9418;52.694;13.294;2022-12-07T07:15:05;12.73;;;9.97;;
18576;SDS011;9418;52.694;13.294;2022-12-07T07:17:32;10.00;;;8.93;;
18576;SDS011;9418;52.694;13.294;2022-12-07T07:19:58;10.40;;;9.30;;
18576;SDS011;9418;52.694;13.294;2022-12-07T07:22:25;10.40;;;9.27;;
18576;SDS011;9418;52.694;13.294;2022-12-07T07:24:52;9.50;;;8.50;;
18576;SDS011;9418;52.694;13.294;2022-12-07T07:27:19;12.10;;;7.83;;
18576;SDS011;9418;52.694;13.294;2022-12-07T07:32:51;9.63;;;8.60;;
18576;SDS011;9418;52.694;13.294;2022-12-07T07:35:17;9.43;;;8.43;;
18576;SDS011;9418;52.694;13.294;2022-12-07T07:37:44;10.93;;;8.27;;
18576;SDS011;9418;52.694;13.294;2022-12-07T07:40:11;8.70;;;7.87;;
18576;SDS011;9418;52.694;13.294;2022-12-07T07:42:39;10.13;;;8.47;;
18576;SDS011;9418;52.694;13.294;2022-12-07T07:45:06;11.90;;;7.20;;
18576;SDS011;9418;52.694;13.294;2022-12-07T07:47:33;7.47;;;6.87;;
18576;SDS011;9418;52.694;13.294;2022-12-07T07:50:00;6.63;;;6.03;;
18576;SDS011;9418;52.694;13.294;2022-12-07T07:52:26;5.53;;;4.95;;
18576;SDS011;9418;52.694;13.294;2022-12-07T07:54:53;7.03;;;5.70;;
18576;SDS011;9418;52.694;13.294;2022-12-07T07:57:19;6.10;;;5.53;;
18576;SDS011;9418;52.694;13.294;2022-12-07T07:59:47;6.20;;;5.60;;
18576;SDS011;9418;52.694;13.294;2022-12-07T08:02:14;5.67;;;5.13;;
18576;SDS011;9418;52.694;13.294;2022-12-07T08:04:42;5.10;;;4.70;;
18576;SDS011;9418;52.694;13.294;2022-12-07T08:07:09;4.83;;;4.47;;
18576;SDS011;9418;52.694;13.294;2022-12-07T08:09:36;5.63;;;4.97;;
18576;SDS011;9418;52.694;13.294;2022-12-07T08:12:03;5.83;;;4.40;;
18576;SDS011;9418;52.694;13.294;2022-12-07T08:14:30;4.43;;;4.03;;
18576;SDS011;9418;52.694;13.294;2022-12-07T08:16:58;5.50;;;4.23;;
18576;SDS011;9418;52.694;13.294;2022-12-07T08:19:25;4.40;;;4.00;;
18576;SDS011;9418;52.694;13.294;2022-12-07T08:21:51;4.20;;;3.80;;
18576;SDS011;9418;52.694;13.294;2022-12-07T08:24:20;3.90;;;3.00;;
18576;SDS011;9418;52.694;13.294;2022-12-07T08:26:46;6.00;;;4.47;;
18576;SDS011;9418;52.694;13.294;2022-12-07T08:29:13;3.90;;;3.60;;
18576;SDS011;9418;52.694;13.294;2022-12-07T08:31:39;3.50;;;3.30;;
18576;SDS011;9418;52.694;13.294;2022-12-07T08:34:07;4.70;;;4.20;;
18576;SDS011;9418;52.694;13.294;2022-12-07T08:36:36;4.00;;;3.70;;
18576;SDS011;9418;52.694;13.294;2022-12-07T08:39:03;3.70;;;3.20;;
18576;SDS011;9418;52.694;13.294;2022-12-07T08:41:30;3.40;;;3.20;;
18576;SDS011;9418;52.694;13.294;2022-12-07T08:43:56;3.37;;;3.17;;
18576;SDS011;9418;52.694;13.294;2022-12-07T08:46:24;3.63;;;3.07;;
18576;SDS011;9418;52.694;13.294;2022-12-07T08:48:55;4.50;;;3.40;;
18576;SDS011;9418;52.694;13.294;2022-12-07T08:51:25;6.90;;;3.80;;
18576;SDS011;9418;52.694;13.294;2022-12-07T08:53:53;3.20;;;3.00;;
18576;SDS011;9418;52.694;13.294;2022-12-07T08:56:23;2.90;;;2.70;;
18576;SDS011;9418;52.694;13.294;2022-12-07T08:58:50;3.30;;;3.10;;
18576;SDS011;9418;52.694;13.294;2022-12-07T09:01:17;3.07;;;2.87;;
18576;SDS011;9418;52.694;13.294;2022-12-07T09:03:44;2.90;;;2.70;;
18576;SDS011;9418;52.694;13.294;2022-12-07T09:06:10;2.83;;;2.63;;
18576;SDS011;9418;52.694;13.294;2022-12-07T09:08:39;7.20;;;2.80;;
18576;SDS011;9418;52.694;13.294;2022-12-07T09:11:08;4.00;;;3.60;;
18576;SDS011;9418;52.694;13.294;2022-12-07T09:13:34;3.37;;;3.10;;
18576;SDS011;9418;52.694;13.294;2022-12-07T09:16:01;2.50;;;2.30;;
18576;SDS011;9418;52.694;13.294;2022-12-07T09:18:28;4.10;;;2.13;;
18576;SDS011;9418;52.694;13.294;2022-12-07T09:20:55;5.80;;;2.00;;
18576;SDS011;9418;52.694;13.294;2022-12-07T09:23:23;2.20;;;2.10;;
18576;SDS011;9418;52.694;13.294;2022-12-07T09:25:51;5.00;;;2.43;;
18576;SDS011;9418;52.694;13.294;2022-12-07T09:28:18;2.60;;;2.40;;
18576;SDS011;9418;52.694;13.294;2022-12-07T09:30:45;5.30;;;2.50;;
18576;SDS011;9418;52.694;13.294;2022-12-07T09:33:12;2.30;;;2.20;;
18576;SDS011;9418;52.694;13.294;2022-12-07T09:35:43;3.37;;;2.93;;
18576;SDS011;9418;52.694;13.294;2022-12-07T09:38:10;2.73;;;2.47;;
18576;SDS011;9418;52.694;13.294;2022-12-07T09:40:37;2.77;;;2.67;;
18576;SDS011;9418;52.694;13.294;2022-12-07T09:43:10;3.00;;;2.70;;
18576;SDS011;9418;52.694;13.294;2022-12-07T09:45:39;2.40;;;2.27;;
18576;SDS011;9418;52.694;13.294;2022-12-07T09:48:08;3.33;;;3.00;;
18576;SDS011;9418;52.694;13.294;2022-12-07T09:50:43;2.50;;;2.40;;
18576;SDS011;9418;52.694;13.294;2022-12-07T09:53:12;3.00;;;2.10;;
18576;SDS011;9418;52.694;13.294;2022-12-07T09:55:41;2.07;;;1.97;;
18576;SDS011;9418;52.694;13.294;2022-12-07T09:58:12;2.90;;;2.70;;
18576;SDS011;9418;52.694;13.294;2022-12-07T10:00:46;1.87;;;1.77;;
18576;SDS011;9418;52.694;13.294;2022-12-07T10:03:13;5.27;;;2.30;;
18576;SDS011;9418;52.694;13.294;2022-12-07T10:05:40;2.33;;;2.23;;
18576;SDS011;9418;52.694;13.294;2022-12-07T10:08:09;1.40;;;1.40;;
18576;SDS011;9418;52.694;13.294;2022-12-07T10:10:37;2.07;;;1.97;;
18576;SDS011;9418;52.694;13.294;2022-12-07T10:13:05;2.10;;;2.00;;
18576;SDS011;9418;52.694;13.294;2022-12-07T10:15:44;2.23;;;2.00;;
18576;SDS011;9418;52.694;13.294;2022-12-07T10:18:21;2.90;;;1.80;;
18576;SDS011;9418;52.694;13.294;2022-12-07T10:20:59;1.70;;;1.60;;
18576;SDS011;9418;52.694;13.294;2022-12-07T10:23:28;2.00;;;1.80;;
18576;SDS011;9418;52.694;13.294;2022-12-07T10:25:55;2.83;;;1.57;;
18576;SDS011;9418;52.694;13.294;2022-12-07T10:28:22;1.93;;;1.30;;
18576;SDS011;9418;52.694;13.294;2022-12-07T10:30:51;2.07;;;2.00;;
18576;SDS011;9418;52.694;13.294;2022-12-07T10:33:28;2.07;;;1.97;;
18576;SDS011;9418;52.694;13.294;2022-12-07T10:36:00;2.17;;;2.07;;
18576;SDS011;9418;52.694;13.294;2022-12-07T10:38:43;1.63;;;1.53;;
18576;SDS011;9418;52.694;13.294;2022-12-07T10:41:12;4.83;;;2.37;;
18576;SDS011;9418;52.694;13.294;2022-12-07T10:43:46;3.77;;;1.77;;
18576;SDS011;9418;52.694;13.294;2022-12-07T10:46:28;2.20;;;2.10;;
18576;SDS011;9418;52.694;13.294;2022-12-07T10:49:25;2.17;;;2.03;;
18576;SDS011;9418;52.694;13.294;2022-12-07T10:52:07;2.20;;;2.00;;
18576;SDS011;9418;52.694;13.294;2022-12-07T10:54:44;2.40;;;2.20;;
18576;SDS011;9418;52.694;13.294;2022-12-07T10:57:25;2.67;;;2.47;;
18576;SDS011;9418;52.694;13.294;2022-12-07T11:00:08;2.80;;;2.60;;
18576;SDS011;9418;52.694;13.294;2022-12-07T11:02:48;9.23;;;2.70;;
18576;SDS011;9418;52.694;13.294;2022-12-07T11:05:33;3.47;;;2.50;;
18576;SDS011;9418;52.694;13.294;2022-12-07T11:08:11;4.00;;;2.17;;
18576;SDS011;9418;52.694;13.294;2022-12-07T11:10:44;3.37;;;2.40;;
18576;SDS011;9418;52.694;13.294;2022-12-07T11:13:27;2.60;;;2.03;;
18576;SDS011;9418;52.694;13.294;2022-12-07T11:16:11;5.30;;;2.70;;
18576;SDS011;9418;52.694;13.294;2022-12-07T11:18:49;3.07;;;2.87;;
18576;SDS011;9418;52.694;13.294;2022-12-07T11:21:26;3.67;;;3.43;;
18576;SDS011;9418;52.694;13.294;2022-12-07T11:23:57;4.83;;;3.70;;
18576;SDS011;9418;52.694;13.294;2022-12-07T11:26:34;3.73;;;3.00;;
18576;SDS011;9418;52.694;13.294;2022-12-07T11:29:23;3.57;;;2.70;;
18576;SDS011;9418;52.694;13.294;2022-12-07T11:32:08;3.73;;;3.00;;
18576;SDS011;9418;52.694;13.294;2022-12-07T11:34:45;3.53;;;2.97;;
18576;SDS011;9418;52.694;13.294;2022-12-07T11:37:20;3.17;;;2.83;;
18576;SDS011;9418;52.694;13.294;2022-12-07T11:39:52;4.73;;;2.90;;
18576;SDS011;9418;52.694;13.294;2022-12-07T11:42:25;4.00;;;3.00;;
18576;SDS011;9418;52.694;13.294;2022-12-07T11:44:53;3.20;;;2.90;;
18576;SDS011;9418;52.694;13.294;2022-12-07T11:47:27;9.93;;;2.90;;
18576;SDS011;9418;52.694;13.294;2022-12-07T11:50:03;3.43;;;3.23;;
18576;SDS011;9418;52.694;13.294;2022-12-07T11:52:43;3.00;;;2.80;;
18576;SDS011;9418;52.694;13.294;2022-12-07T11:55:16;3.53;;;3.23;;
18576;SDS011;9418;52.694;13.294;2022-12-07T11:57:49;9.70;;;4.10;;
18576;SDS011;9418;52.694;13.294;2022-12-07T12:00:20;4.07;;;3.67;;
18576;SDS011;9418;52.694;13.294;2022-12-07T12:02:48;3.33;;;3.00;;
18576;SDS011;9418;52.694;13.294;2022-12-07T12:05:21;13.07;;;2.67;;
18576;SDS011;9418;52.694;13.294;2022-12-07T12:07:51;4.30;;;3.20;;
18576;SDS011;9418;52.694;13.294;2022-12-07T12:10:27;2.63;;;2.47;;
18576;SDS011;9418;52.694;13.294;2022-12-07T12:13:09;3.17;;;2.80;;
18576;SDS011;9418;52.694;13.294;2022-12-07T12:15:57;3.33;;;2.47;;
18576;SDS011;9418;52.694;13.294;2022-12-07T12:18:36;3.30;;;2.60;;
18576;SDS011;9418;52.694;13.294;2022-12-07T12:21:16;3.93;;;3.33;;
18576;SDS011;9418;52.694;13.294;2022-12-07T12:23:46;5.07;;;2.93;;
18576;SDS011;9418;52.694;13.294;2022-12-07T12:26:17;6.13;;;3.20;;
18576;SDS011;9418;52.694;13.294;2022-12-07T12:28:50;3.10;;;2.90;;
18576;SDS011;9418;52.694;13.294;2022-12-07T12:31:33;3.70;;;3.40;;
18576;SDS011;9418;52.694;13.294;2022-12-07T12:34:04;9.47;;;5.30;;
18576;SDS011;9418;52.694;13.294;2022-12-07T12:36:57;6.63;;;4.70;;
18576;SDS011;9418;52.694;13.294;2022-12-07T12:39:24;7.70;;;3.27;;
18576;SDS011;9418;52.694;13.294;2022-12-07T12:41:55;3.10;;;2.90;;
18576;SDS011;9418;52.694;13.294;2022-12-07T12:44:38;2.97;;;2.77;;
18576;SDS011;9418;52.694;13.294;2022-12-07T12:47:37;3.50;;;2.80;;
18576;SDS011;9418;52.694;13.294;2022-12-07T12:50:17;4.73;;;2.37;;
18576;SDS011;9418;52.694;13.294;2022-12-07T12:52:47;4.87;;;3.10;;
18576;SDS011;9418;52.694;13.294;2022-12-07T12:55:22;5.20;;;3.00;;
18576;SDS011;9418;52.694;13.294;2022-12-07T13:10:28;2.87;;;2.57;;
18576;SDS011;9418;52.694;13.294;2022-12-07T13:13:03;8.63;;;3.97;;
18576;SDS011;9418;52.694;13.294;2022-12-07T13:15:51;2.90;;;2.67;;
18576;SDS011;9418;52.694;13.294;2022-12-07T13:18:22;5.40;;;2.70;;
18576;SDS011;9418;52.694;13.294;2022-12-07T13:20:52;4.03;;;2.77;;
18576;SDS011;9418;52.694;13.294;2022-12-07T13:23:29;4.33;;;2.17;;
18576;SDS011;9418;52.694;13.294;2022-12-07T13:26:04;2.50;;;2.30;;
18576;SDS011;9418;52.694;13.294;2022-12-07T13:28:42;3.83;;;2.67;;
18576;SDS011;9418;52.694;13.294;2022-12-07T13:31:14;4.10;;;2.67;;
18576;SDS011;9418;52.694;13.294;2022-12-07T13:33:52;5.97;;;2.90;;
18576;SDS011;9418;52.694;13.294;2022-12-07T13:36:19;3.20;;;2.53;;
18576;SDS011;9418;52.694;13.294;2022-12-07T13:38:49;4.57;;;2.57;;
18576;SDS011;9418;52.694;13.294;2022-12-07T13:41:18;6.43;;;3.57;;
18576;SDS011;9418;52.694;13.294;2022-12-07T13:43:48;5.27;;;2.20;;
18576;SDS011;9418;52.694;13.294;2022-12-07T13:46:18;7.60;;;2.83;;
18576;SDS011;9418;52.694;13.294;2022-12-07T13:48:50;14.60;;;2.50;;
18576;SDS011;9418;52.694;13.294;2022-12-07T13:51:18;3.20;;;2.93;;
18576;SDS011;9418;52.694;13.294;2022-12-07T13:53:46;5.97;;;3.87;;
18576;SDS011;9418;52.694;13.294;2022-12-07T13:56:13;3.83;;;2.80;;
18576;SDS011;9418;52.694;13.294;2022-12-07T13:58:40;7.87;;;5.57;;
18576;SDS011;9418;52.694;13.294;2022-12-07T14:01:07;6.50;;;3.73;;
18576;SDS011;9418;52.694;13.294;2022-12-07T14:03:35;8.67;;;3.17;;
18576;SDS011;9418;52.694;13.294;2022-12-07T14:06:05;3.97;;;2.53;;
18576;SDS011;9418;52.694;13.294;2022-12-07T14:08:45;3.63;;;2.73;;
18576;SDS011;9418;52.694;13.294;2022-12-07T14:11:13;12.63;;;5.00;;
18576;SDS011;9418;52.694;13.294;2022-12-07T14:13:56;4.50;;;2.63;;
18576;SDS011;9418;52.694;13.294;2022-12-07T14:16:25;3.97;;;3.20;;
18576;SDS011;9418;52.694;13.294;2022-12-07T14:18:55;5.90;;;3.53;;
18576;SDS011;9418;52.694;13.294;2022-12-07T14:21:24;7.67;;;3.10;;
18576;SDS011;9418;52.694;13.294;2022-12-07T14:26:39;5.97;;;4.50;;
18576;SDS011;9418;52.694;13.294;2022-12-07T14:29:19;3.50;;;3.03;;
18576;SDS011;9418;52.694;13.294;2022-12-07T14:31:57;11.83;;;3.30;;
18576;SDS011;9418;52.694;13.294;2022-12-07T14:34:31;8.63;;;3.13;;
18576;SDS011;9418;52.694;13.294;2022-12-07T14:36:58;5.40;;;3.17;;
18576;SDS011;9418;52.694;13.294;2022-12-07T14:39:25;6.77;;;2.83;;
18576;SDS011;9418;52.694;13.294;2022-12-07T14:41:51;6.43;;;2.73;;
18576;SDS011;9418;52.694;13.294;2022-12-07T14:44:18;10.07;;;2.60;;
18576;SDS011;9418;52.694;13.294;2022-12-07T14:46:46;8.17;;;3.13;;
18576;SDS011;9418;52.694;13.294;2022-12-07T14:49:13;6.90;;;3.17;;
18576;SDS011;9418;52.694;13.294;2022-12-07T14:51:41;5.27;;;3.27;;
18576;SDS011;9418;52.694;13.294;2022-12-07T14:54:13;4.50;;;2.40;;
18576;SDS011;9418;52.694;13.294;2022-12-07T14:56:42;10.90;;;2.80;;
18576;SDS011;9418;52.694;13.294;2022-12-07T14:59:10;5.10;;;2.93;;
18576;SDS011;9418;52.694;13.294;2022-12-07T15:01:37;4.80;;;3.50;;
18576;SDS011;9418;52.694;13.294;2022-12-07T15:04:04;4.90;;;2.63;;
18576;SDS011;9418;52.694;13.294;2022-12-07T15:06:31;4.70;;;2.40;;
18576;SDS011;9418;52.694;13.294;2022-12-07T15:08:59;10.30;;;3.40;;
18576;SDS011;9418;52.694;13.294;2022-12-07T15:11:26;10.33;;;3.90;;
18576;SDS011;9418;52.694;13.294;2022-12-07T15:13:53;3.70;;;3.13;;
18576;SDS011;9418;52.694;13.294;2022-12-07T15:16:36;11.33;;;4.90;;
18576;SDS011;9418;52.694;13.294;2022-12-07T15:19:05;19.43;;;5.47;;
18576;SDS011;9418;52.694;13.294;2022-12-07T15:21:35;9.10;;;4.07;;
18576;SDS011;9418;52.694;13.294;2022-12-07T15:24:03;8.23;;;4.00;;
18576;SDS011;9418;52.694;13.294;2022-12-07T15:26:30;5.70;;;3.00;;
18576;SDS011;9418;52.694;13.294;2022-12-07T15:28:57;4.37;;;3.97;;
18576;SDS011;9418;52.694;13.294;2022-12-07T15:31:23;6.27;;;2.80;;